sensor_id;sensor_type;location;lat;lon;timestamp;temperature;humidity
52555;DHT22;38455;52.710;6.502;2023-07-20T00:01:54;16.60;99.90
52555;DHT22;38455;52.710;6.502;2023-07-20T00:04:20;16.60;99.90
52555;DHT22;38455;52.710;6.502;2023-07-20T00:06:46;16.60;99.90
52555;DHT22;38455;52.710;6.502;2023-07-20T00:09:12;16.70;99.90
52555;DHT22;38455;52.710;6.502;2023-07-20T00:11:38;16.70;99.90
52555;DHT22;38455;52.710;6.502;2023-07-20T00:14:07;16.70;99.90
52555;DHT22;38455;52.710;6.502;2023-07-20T00:16:33;16.70;99.90
52555;DHT22;38455;52.710;6.502;2023-07-20T00:18:58;16.70;99.90
52555;DHT22;38455;52.710;6.502;2023-07-20T00:21:24;16.70;99.90
52555;DHT22;38455;52.710;6.502;2023-07-20T00:23:50;16.70;99.90
52555;DHT22;38455;52.710;6.502;2023-07-20T00:26:16;16.60;99.90
52555;DHT22;38455;52.710;6.502;2023-07-20T00:28:43;16.60;99.90
52555;DHT22;38455;52.710;6.502;2023-07-20T00:31:09;16.60;99.90
52555;DHT22;38455;52.710;6.502;2023-07-20T00:33:34;16.50;99.90
52555;DHT22;38455;52.710;6.502;2023-07-20T00:36:00;16.50;99.90
52555;DHT22;38455;52.710;6.502;2023-07-20T00:38:26;16.50;99.90
52555;DHT22;38455;52.710;6.502;2023-07-20T00:40:51;16.40;99.90
52555;DHT22;38455;52.710;6.502;2023-07-20T00:43:17;16.50;99.90
52555;DHT22;38455;52.710;6.502;2023-07-20T00:45:44;16.40;99.90
52555;DHT22;38455;52.710;6.502;2023-07-20T00:48:10;16.40;99.90
52555;DHT22;38455;52.710;6.502;2023-07-20T00:50:36;16.40;99.90
52555;DHT22;38455;52.710;6.502;2023-07-20T00:53:03;16.30;99.90
52555;DHT22;38455;52.710;6.502;2023-07-20T00:55:30;16.30;99.90
52555;DHT22;38455;52.710;6.502;2023-07-20T00:57:57;16.30;99.90
52555;DHT22;38455;52.710;6.502;2023-07-20T01:00:23;16.30;99.90
52555;DHT22;38455;52.710;6.502;2023-07-20T01:02:49;16.30;99.90
52555;DHT22;38455;52.710;6.502;2023-07-20T01:05:15;16.30;99.90
52555;DHT22;38455;52.710;6.502;2023-07-20T01:07:54;16.30;99.90
52555;DHT22;38455;52.710;6.502;2023-07-20T01:10:36;16.30;99.90
52555;DHT22;38455;52.710;6.502;2023-07-20T01:13:06;16.30;99.90
52555;DHT22;38455;52.710;6.502;2023-07-20T01:15:34;16.30;99.90
52555;DHT22;38455;52.710;6.502;2023-07-20T01:18:00;16.20;99.90
52555;DHT22;38455;52.710;6.502;2023-07-20T01:20:28;16.20;99.90
52555;DHT22;38455;52.710;6.502;2023-07-20T01:33:42;16.20;99.90
52555;DHT22;38455;52.710;6.502;2023-07-20T01:36:08;16.10;99.90
52555;DHT22;38455;52.710;6.502;2023-07-20T01:38:36;16.00;99.90
52555;DHT22;38455;52.710;6.502;2023-07-20T01:41:03;16.00;99.90
52555;DHT22;38455;52.710;6.502;2023-07-20T01:43:29;15.90;99.90
52555;DHT22;38455;52.710;6.502;2023-07-20T01:45:55;15.90;99.90
52555;DHT22;38455;52.710;6.502;2023-07-20T01:48:20;15.80;99.90
52555;DHT22;38455;52.710;6.502;2023-07-20T01:50:46;15.70;99.90
52555;DHT22;38455;52.710;6.502;2023-07-20T01:53:12;15.60;99.90
52555;DHT22;38455;52.710;6.502;2023-07-20T01:55:38;15.60;99.90
52555;DHT22;38455;52.710;6.502;2023-07-20T01:58:03;15.50;99.90
52555;DHT22;38455;52.710;6.502;2023-07-20T02:00:29;15.50;99.90
52555;DHT22;38455;52.710;6.502;2023-07-20T02:02:55;15.40;99.90
52555;DHT22;38455;52.710;6.502;2023-07-20T02:05:21;15.30;99.90
52555;DHT22;38455;52.710;6.502;2023-07-20T02:07:46;15.30;99.90
52555;DHT22;38455;52.710;6.502;2023-07-20T02:10:12;15.20;99.90
52555;DHT22;38455;52.710;6.502;2023-07-20T02:12:38;15.10;99.90
52555;DHT22;38455;52.710;6.502;2023-07-20T02:15:04;15.00;99.90
52555;DHT22;38455;52.710;6.502;2023-07-20T02:17:30;14.90;99.90
52555;DHT22;38455;52.710;6.502;2023-07-20T02:19:56;14.90;99.90
52555;DHT22;38455;52.710;6.502;2023-07-20T02:22:23;14.80;99.90
52555;DHT22;38455;52.710;6.502;2023-07-20T02:24:49;14.80;99.90
52555;DHT22;38455;52.710;6.502;2023-07-20T02:27:16;14.70;99.90
52555;DHT22;38455;52.710;6.502;2023-07-20T02:29:42;14.70;99.90
52555;DHT22;38455;52.710;6.502;2023-07-20T02:32:08;14.60;99.90
52555;DHT22;38455;52.710;6.502;2023-07-20T02:34:35;14.60;99.90
52555;DHT22;38455;52.710;6.502;2023-07-20T02:37:01;14.60;99.90
52555;DHT22;38455;52.710;6.502;2023-07-20T02:39:28;14.50;99.90
52555;DHT22;38455;52.710;6.502;2023-07-20T02:41:54;14.50;99.90
52555;DHT22;38455;52.710;6.502;2023-07-20T02:44:19;14.40;99.90
52555;DHT22;38455;52.710;6.502;2023-07-20T02:46:45;14.40;99.90
52555;DHT22;38455;52.710;6.502;2023-07-20T02:49:11;14.30;99.90
52555;DHT22;38455;52.710;6.502;2023-07-20T02:51:37;14.30;99.90
52555;DHT22;38455;52.710;6.502;2023-07-20T02:54:02;14.20;99.90
52555;DHT22;38455;52.710;6.502;2023-07-20T02:56:29;14.20;99.90
52555;DHT22;38455;52.710;6.502;2023-07-20T02:58:55;14.10;99.90
52555;DHT22;38455;52.710;6.502;2023-07-20T03:01:20;14.10;99.90
52555;DHT22;38455;52.710;6.502;2023-07-20T03:03:46;14.00;99.90
52555;DHT22;38455;52.710;6.502;2023-07-20T03:06:16;14.00;99.90
52555;DHT22;38455;52.710;6.502;2023-07-20T03:08:45;13.90;99.90
52555;DHT22;38455;52.710;6.502;2023-07-20T03:11:16;13.90;99.90
52555;DHT22;38455;52.710;6.502;2023-07-20T03:13:42;13.80;99.90
52555;DHT22;38455;52.710;6.502;2023-07-20T03:16:08;13.80;99.90
52555;DHT22;38455;52.710;6.502;2023-07-20T03:18:39;13.70;99.90
52555;DHT22;38455;52.710;6.502;2023-07-20T03:21:09;13.70;99.90
52555;DHT22;38455;52.710;6.502;2023-07-20T03:23:39;13.70;99.90
52555;DHT22;38455;52.710;6.502;2023-07-20T03:26:05;13.70;99.90
52555;DHT22;38455;52.710;6.502;2023-07-20T03:28:34;13.70;99.90
52555;DHT22;38455;52.710;6.502;2023-07-20T03:31:00;13.60;99.90
52555;DHT22;38455;52.710;6.502;2023-07-20T03:33:27;13.60;99.90
52555;DHT22;38455;52.710;6.502;2023-07-20T03:35:53;13.50;99.90
52555;DHT22;38455;52.710;6.502;2023-07-20T03:38:20;13.50;99.90
52555;DHT22;38455;52.710;6.502;2023-07-20T03:40:52;13.50;99.90
52555;DHT22;38455;52.710;6.502;2023-07-20T03:43:18;13.50;99.90
52555;DHT22;38455;52.710;6.502;2023-07-20T03:45:44;13.50;99.90
52555;DHT22;38455;52.710;6.502;2023-07-20T03:48:11;13.50;99.90
52555;DHT22;38455;52.710;6.502;2023-07-20T03:50:37;13.40;99.90
52555;DHT22;38455;52.710;6.502;2023-07-20T03:53:03;13.50;99.90
52555;DHT22;38455;52.710;6.502;2023-07-20T03:55:29;13.50;99.90
52555;DHT22;38455;52.710;6.502;2023-07-20T03:57:55;13.50;99.90
52555;DHT22;38455;52.710;6.502;2023-07-20T04:00:20;13.50;99.90
52555;DHT22;38455;52.710;6.502;2023-07-20T04:02:46;13.40;99.90
52555;DHT22;38455;52.710;6.502;2023-07-20T04:05:12;13.50;99.90
52555;DHT22;38455;52.710;6.502;2023-07-20T04:07:38;13.50;99.90
52555;DHT22;38455;52.710;6.502;2023-07-20T04:10:04;13.50;99.90
52555;DHT22;38455;52.710;6.502;2023-07-20T04:12:29;13.50;99.90
52555;DHT22;38455;52.710;6.502;2023-07-20T04:14:55;13.50;99.90
52555;DHT22;38455;52.710;6.502;2023-07-20T04:17:21;13.50;99.90
52555;DHT22;38455;52.710;6.502;2023-07-20T04:19:46;13.50;99.90
52555;DHT22;38455;52.710;6.502;2023-07-20T04:22:12;13.50;99.90
52555;DHT22;38455;52.710;6.502;2023-07-20T04:24:43;13.50;99.90
52555;DHT22;38455;52.710;6.502;2023-07-20T04:27:09;13.50;99.90
52555;DHT22;38455;52.710;6.502;2023-07-20T04:29:35;13.50;99.90
52555;DHT22;38455;52.710;6.502;2023-07-20T04:32:00;13.50;99.90
52555;DHT22;38455;52.710;6.502;2023-07-20T04:34:26;13.60;99.90
52555;DHT22;38455;52.710;6.502;2023-07-20T04:36:51;13.60;99.90
52555;DHT22;38455;52.710;6.502;2023-07-20T04:39:17;13.60;99.90
52555;DHT22;38455;52.710;6.502;2023-07-20T04:41:43;13.70;99.90
52555;DHT22;38455;52.710;6.502;2023-07-20T04:44:08;13.80;99.90
52555;DHT22;38455;52.710;6.502;2023-07-20T04:46:34;13.80;99.90
52555;DHT22;38455;52.710;6.502;2023-07-20T04:49:00;13.90;99.90
52555;DHT22;38455;52.710;6.502;2023-07-20T04:51:27;14.20;99.90
52555;DHT22;38455;52.710;6.502;2023-07-20T04:53:52;14.70;99.90
52555;DHT22;38455;52.710;6.502;2023-07-20T04:56:18;15.50;99.90
52555;DHT22;38455;52.710;6.502;2023-07-20T04:58:44;16.20;99.90
52555;DHT22;38455;52.710;6.502;2023-07-20T05:01:10;16.70;99.90
52555;DHT22;38455;52.710;6.502;2023-07-20T05:03:36;17.20;99.90
52555;DHT22;38455;52.710;6.502;2023-07-20T05:06:02;17.70;99.90
52555;DHT22;38455;52.710;6.502;2023-07-20T05:08:27;18.00;99.90
52555;DHT22;38455;52.710;6.502;2023-07-20T05:10:53;18.40;99.90
52555;DHT22;38455;52.710;6.502;2023-07-20T05:13:20;18.70;99.90
52555;DHT22;38455;52.710;6.502;2023-07-20T05:15:46;18.80;99.90
52555;DHT22;38455;52.710;6.502;2023-07-20T05:18:12;19.10;99.90
52555;DHT22;38455;52.710;6.502;2023-07-20T05:20:38;19.20;99.90
52555;DHT22;38455;52.710;6.502;2023-07-20T05:23:04;19.40;99.90
52555;DHT22;38455;52.710;6.502;2023-07-20T05:25:29;19.50;99.90
52555;DHT22;38455;52.710;6.502;2023-07-20T05:27:55;19.70;99.90
52555;DHT22;38455;52.710;6.502;2023-07-20T05:30:21;19.80;99.90
52555;DHT22;38455;52.710;6.502;2023-07-20T05:32:47;20.00;99.90
52555;DHT22;38455;52.710;6.502;2023-07-20T05:35:17;20.30;99.90
52555;DHT22;38455;52.710;6.502;2023-07-20T05:37:44;20.30;99.90
52555;DHT22;38455;52.710;6.502;2023-07-20T05:40:10;20.60;99.90
52555;DHT22;38455;52.710;6.502;2023-07-20T05:42:38;20.90;99.90
52555;DHT22;38455;52.710;6.502;2023-07-20T05:45:04;21.10;99.90
52555;DHT22;38455;52.710;6.502;2023-07-20T05:47:30;21.40;99.90
52555;DHT22;38455;52.710;6.502;2023-07-20T05:49:57;21.40;99.90
52555;DHT22;38455;52.710;6.502;2023-07-20T05:52:23;21.70;99.90
52555;DHT22;38455;52.710;6.502;2023-07-20T05:54:48;22.00;99.90
52555;DHT22;38455;52.710;6.502;2023-07-20T05:57:14;22.00;99.90
52555;DHT22;38455;52.710;6.502;2023-07-20T05:59:40;22.10;99.90
52555;DHT22;38455;52.710;6.502;2023-07-20T06:02:09;22.20;99.90
52555;DHT22;38455;52.710;6.502;2023-07-20T06:04:35;22.40;99.90
52555;DHT22;38455;52.710;6.502;2023-07-20T06:07:01;22.60;99.90
52555;DHT22;38455;52.710;6.502;2023-07-20T06:09:27;23.10;99.90
52555;DHT22;38455;52.710;6.502;2023-07-20T06:11:53;23.40;99.90
52555;DHT22;38455;52.710;6.502;2023-07-20T06:14:19;23.30;99.90
52555;DHT22;38455;52.710;6.502;2023-07-20T06:16:45;23.60;99.90
52555;DHT22;38455;52.710;6.502;2023-07-20T06:19:11;23.90;99.90
52555;DHT22;38455;52.710;6.502;2023-07-20T06:21:38;24.30;99.90
52555;DHT22;38455;52.710;6.502;2023-07-20T06:24:04;24.80;99.90
52555;DHT22;38455;52.710;6.502;2023-07-20T06:26:29;25.00;99.90
52555;DHT22;38455;52.710;6.502;2023-07-20T06:28:56;25.30;99.90
52555;DHT22;38455;52.710;6.502;2023-07-20T06:31:22;25.10;99.90
52555;DHT22;38455;52.710;6.502;2023-07-20T06:33:47;25.20;99.90
52555;DHT22;38455;52.710;6.502;2023-07-20T06:36:15;25.30;99.90
52555;DHT22;38455;52.710;6.502;2023-07-20T06:38:41;25.00;99.90
52555;DHT22;38455;52.710;6.502;2023-07-20T06:41:07;25.00;99.90
52555;DHT22;38455;52.710;6.502;2023-07-20T06:43:32;25.40;99.90
52555;DHT22;38455;52.710;6.502;2023-07-20T06:46:01;25.60;99.90
52555;DHT22;38455;52.710;6.502;2023-07-20T06:48:26;26.10;99.90
52555;DHT22;38455;52.710;6.502;2023-07-20T06:50:52;26.50;99.80
52555;DHT22;38455;52.710;6.502;2023-07-20T06:53:19;27.10;98.90
52555;DHT22;38455;52.710;6.502;2023-07-20T06:55:44;27.10;98.40
52555;DHT22;38455;52.710;6.502;2023-07-20T06:58:11;27.30;98.10
52555;DHT22;38455;52.710;6.502;2023-07-20T07:00:37;27.00;97.20
52555;DHT22;38455;52.710;6.502;2023-07-20T07:03:03;27.30;97.30
52555;DHT22;38455;52.710;6.502;2023-07-20T07:05:29;27.90;96.50
52555;DHT22;38455;52.710;6.502;2023-07-20T07:07:54;28.00;95.30
52555;DHT22;38455;52.710;6.502;2023-07-20T07:10:20;27.80;95.80
52555;DHT22;38455;52.710;6.502;2023-07-20T07:12:46;27.80;95.70
52555;DHT22;38455;52.710;6.502;2023-07-20T07:15:11;28.20;94.90
52555;DHT22;38455;52.710;6.502;2023-07-20T07:17:37;28.60;94.40
52555;DHT22;38455;52.710;6.502;2023-07-20T07:20:04;28.50;93.80
52555;DHT22;38455;52.710;6.502;2023-07-20T07:22:30;28.80;93.70
52555;DHT22;38455;52.710;6.502;2023-07-20T07:24:56;29.30;93.00
52555;DHT22;38455;52.710;6.502;2023-07-20T07:27:22;29.20;91.90
52555;DHT22;38455;52.710;6.502;2023-07-20T07:29:47;29.00;92.00
52555;DHT22;38455;52.710;6.502;2023-07-20T07:32:15;29.00;90.70
52555;DHT22;38455;52.710;6.502;2023-07-20T07:34:41;27.90;90.50
52555;DHT22;38455;52.710;6.502;2023-07-20T07:37:07;26.90;91.50
52555;DHT22;38455;52.710;6.502;2023-07-20T07:39:33;25.70;92.30
52555;DHT22;38455;52.710;6.502;2023-07-20T07:41:58;25.10;93.30
52555;DHT22;38455;52.710;6.502;2023-07-20T07:44:24;24.40;94.40
52555;DHT22;38455;52.710;6.502;2023-07-20T07:46:50;24.50;94.80
52555;DHT22;38455;52.710;6.502;2023-07-20T07:49:16;24.10;94.80
52555;DHT22;38455;52.710;6.502;2023-07-20T07:51:44;23.90;96.40
52555;DHT22;38455;52.710;6.502;2023-07-20T07:54:09;23.40;96.60
52555;DHT22;38455;52.710;6.502;2023-07-20T07:56:35;23.70;97.30
52555;DHT22;38455;52.710;6.502;2023-07-20T07:59:01;24.40;97.80
52555;DHT22;38455;52.710;6.502;2023-07-20T08:01:28;25.00;96.10
52555;DHT22;38455;52.710;6.502;2023-07-20T08:03:54;25.30;95.00
52555;DHT22;38455;52.710;6.502;2023-07-20T08:06:20;24.90;95.60
52555;DHT22;38455;52.710;6.502;2023-07-20T08:08:45;24.50;94.70
52555;DHT22;38455;52.710;6.502;2023-07-20T08:11:11;24.00;94.80
52555;DHT22;38455;52.710;6.502;2023-07-20T08:13:37;24.80;94.50
52555;DHT22;38455;52.710;6.502;2023-07-20T08:16:03;25.00;94.10
52555;DHT22;38455;52.710;6.502;2023-07-20T08:18:28;24.30;94.10
52555;DHT22;38455;52.710;6.502;2023-07-20T08:20:54;24.00;94.30
52555;DHT22;38455;52.710;6.502;2023-07-20T08:23:20;23.70;95.10
52555;DHT22;38455;52.710;6.502;2023-07-20T08:25:46;23.10;95.50
52555;DHT22;38455;52.710;6.502;2023-07-20T08:28:14;22.80;96.40
52555;DHT22;38455;52.710;6.502;2023-07-20T08:30:44;22.10;97.60
52555;DHT22;38455;52.710;6.502;2023-07-20T08:33:12;21.60;99.50
52555;DHT22;38455;52.710;6.502;2023-07-20T08:35:38;21.20;99.60
52555;DHT22;38455;52.710;6.502;2023-07-20T08:38:04;20.80;99.90
52555;DHT22;38455;52.710;6.502;2023-07-20T08:40:34;20.90;99.90
52555;DHT22;38455;52.710;6.502;2023-07-20T08:43:04;21.10;99.90
52555;DHT22;38455;52.710;6.502;2023-07-20T08:45:34;22.20;99.90
52555;DHT22;38455;52.710;6.502;2023-07-20T08:48:01;23.20;99.90
52555;DHT22;38455;52.710;6.502;2023-07-20T08:50:31;23.80;98.60
52555;DHT22;38455;52.710;6.502;2023-07-20T08:52:58;24.10;96.10
52555;DHT22;38455;52.710;6.502;2023-07-20T08:55:26;23.30;95.70
52555;DHT22;38455;52.710;6.502;2023-07-20T08:57:57;23.50;96.00
52555;DHT22;38455;52.710;6.502;2023-07-20T09:00:24;23.50;96.10
52555;DHT22;38455;52.710;6.502;2023-07-20T09:02:52;24.80;95.70
52555;DHT22;38455;52.710;6.502;2023-07-20T09:05:19;25.70;95.60
52555;DHT22;38455;52.710;6.502;2023-07-20T09:07:45;26.50;94.90
52555;DHT22;38455;52.710;6.502;2023-07-20T09:10:12;27.00;93.90
52555;DHT22;38455;52.710;6.502;2023-07-20T09:12:39;27.00;93.20
52555;DHT22;38455;52.710;6.502;2023-07-20T09:15:07;27.10;93.70
52555;DHT22;38455;52.710;6.502;2023-07-20T09:17:33;26.80;93.10
52555;DHT22;38455;52.710;6.502;2023-07-20T09:20:02;26.60;93.20
52555;DHT22;38455;52.710;6.502;2023-07-20T09:22:33;26.40;92.70
52555;DHT22;38455;52.710;6.502;2023-07-20T09:24:59;25.70;92.90
52555;DHT22;38455;52.710;6.502;2023-07-20T09:27:44;25.20;93.40
52555;DHT22;38455;52.710;6.502;2023-07-20T09:30:11;24.60;93.60
52555;DHT22;38455;52.710;6.502;2023-07-20T09:32:41;24.10;94.50
52555;DHT22;38455;52.710;6.502;2023-07-20T09:35:18;23.90;95.40
52555;DHT22;38455;52.710;6.502;2023-07-20T09:37:50;23.70;95.50
52555;DHT22;38455;52.710;6.502;2023-07-20T09:40:20;24.00;96.10
52555;DHT22;38455;52.710;6.502;2023-07-20T09:42:46;24.90;95.60
52555;DHT22;38455;52.710;6.502;2023-07-20T09:45:12;25.20;95.10
52555;DHT22;38455;52.710;6.502;2023-07-20T09:47:38;25.30;94.30
52555;DHT22;38455;52.710;6.502;2023-07-20T09:50:05;25.40;94.10
52555;DHT22;38455;52.710;6.502;2023-07-20T09:52:38;25.50;94.10
52555;DHT22;38455;52.710;6.502;2023-07-20T09:55:08;25.40;93.90
52555;DHT22;38455;52.710;6.502;2023-07-20T09:57:35;25.20;93.60
52555;DHT22;38455;52.710;6.502;2023-07-20T10:00:03;24.90;93.30
52555;DHT22;38455;52.710;6.502;2023-07-20T10:02:43;24.50;94.10
52555;DHT22;38455;52.710;6.502;2023-07-20T10:05:14;24.00;94.70
52555;DHT22;38455;52.710;6.502;2023-07-20T10:07:48;23.60;95.50
52555;DHT22;38455;52.710;6.502;2023-07-20T10:10:16;23.20;95.10
52555;DHT22;38455;52.710;6.502;2023-07-20T10:12:47;22.70;96.30
52555;DHT22;38455;52.710;6.502;2023-07-20T10:15:27;21.90;99.90
52555;DHT22;38455;52.710;6.502;2023-07-20T10:20:22;20.60;99.90
52555;DHT22;38455;52.710;6.502;2023-07-20T10:22:49;20.30;99.90
52555;DHT22;38455;52.710;6.502;2023-07-20T10:25:18;20.10;99.90
52555;DHT22;38455;52.710;6.502;2023-07-20T10:27:46;19.90;99.90
52555;DHT22;38455;52.710;6.502;2023-07-20T10:30:13;19.80;99.90
52555;DHT22;38455;52.710;6.502;2023-07-20T10:32:40;19.80;99.90
52555;DHT22;38455;52.710;6.502;2023-07-20T10:35:14;19.80;99.90
52555;DHT22;38455;52.710;6.502;2023-07-20T10:37:53;19.90;99.90
52555;DHT22;38455;52.710;6.502;2023-07-20T10:43:03;20.20;99.90
52555;DHT22;38455;52.710;6.502;2023-07-20T10:45:57;20.40;99.90
52555;DHT22;38455;52.710;6.502;2023-07-20T10:48:24;20.80;99.90
52555;DHT22;38455;52.710;6.502;2023-07-20T10:51:14;21.10;99.90
52555;DHT22;38455;52.710;6.502;2023-07-20T10:53:45;21.50;99.90
52555;DHT22;38455;52.710;6.502;2023-07-20T10:56:15;21.50;99.90
52555;DHT22;38455;52.710;6.502;2023-07-20T10:58:44;21.50;99.90
52555;DHT22;38455;52.710;6.502;2023-07-20T11:01:14;21.40;99.90
52555;DHT22;38455;52.710;6.502;2023-07-20T11:03:40;21.20;99.90
52555;DHT22;38455;52.710;6.502;2023-07-20T11:11:34;21.20;99.90
52555;DHT22;38455;52.710;6.502;2023-07-20T11:14:02;21.30;99.90
52555;DHT22;38455;52.710;6.502;2023-07-20T11:16:34;21.50;99.90
52555;DHT22;38455;52.710;6.502;2023-07-20T11:19:01;21.70;99.90
52555;DHT22;38455;52.710;6.502;2023-07-20T11:21:27;21.90;99.90
52555;DHT22;38455;52.710;6.502;2023-07-20T11:23:53;22.30;99.90
52555;DHT22;38455;52.710;6.502;2023-07-20T11:26:19;22.50;99.90
52555;DHT22;38455;52.710;6.502;2023-07-20T11:28:49;22.70;99.90
52555;DHT22;38455;52.710;6.502;2023-07-20T11:31:15;23.10;99.90
52555;DHT22;38455;52.710;6.502;2023-07-20T11:33:43;23.20;99.90
52555;DHT22;38455;52.710;6.502;2023-07-20T11:36:09;23.80;99.90
52555;DHT22;38455;52.710;6.502;2023-07-20T11:38:35;24.60;99.90
52555;DHT22;38455;52.710;6.502;2023-07-20T11:41:03;24.90;99.90
52555;DHT22;38455;52.710;6.502;2023-07-20T11:43:30;25.10;99.90
52555;DHT22;38455;52.710;6.502;2023-07-20T11:45:56;25.00;99.70
52555;DHT22;38455;52.710;6.502;2023-07-20T11:48:22;25.00;99.90
52555;DHT22;38455;52.710;6.502;2023-07-20T11:50:48;25.20;99.80
52555;DHT22;38455;52.710;6.502;2023-07-20T11:53:14;25.10;98.70
52555;DHT22;38455;52.710;6.502;2023-07-20T11:55:41;25.10;98.70
52555;DHT22;38455;52.710;6.502;2023-07-20T11:58:08;25.30;98.40
52555;DHT22;38455;52.710;6.502;2023-07-20T12:00:35;25.80;98.20
52555;DHT22;38455;52.710;6.502;2023-07-20T12:03:01;26.60;97.10
52555;DHT22;38455;52.710;6.502;2023-07-20T12:05:27;27.20;96.80
52555;DHT22;38455;52.710;6.502;2023-07-20T12:07:53;27.00;96.40
52555;DHT22;38455;52.710;6.502;2023-07-20T12:10:27;26.70;95.50
52555;DHT22;38455;52.710;6.502;2023-07-20T12:12:54;26.30;93.90
52555;DHT22;38455;52.710;6.502;2023-07-20T12:15:22;25.70;94.20
52555;DHT22;38455;52.710;6.502;2023-07-20T12:17:53;25.40;95.00
52555;DHT22;38455;52.710;6.502;2023-07-20T12:20:29;25.20;95.70
52555;DHT22;38455;52.710;6.502;2023-07-20T12:23:12;24.80;95.60
52555;DHT22;38455;52.710;6.502;2023-07-20T12:25:39;24.50;95.80
52555;DHT22;38455;52.710;6.502;2023-07-20T12:28:09;24.40;96.50
52555;DHT22;38455;52.710;6.502;2023-07-20T12:30:36;24.30;96.90
52555;DHT22;38455;52.710;6.502;2023-07-20T12:33:03;24.40;97.60
52555;DHT22;38455;52.710;6.502;2023-07-20T12:35:30;24.40;96.90
52555;DHT22;38455;52.710;6.502;2023-07-20T12:37:55;24.60;96.20
52555;DHT22;38455;52.710;6.502;2023-07-20T12:40:21;24.70;95.90
52555;DHT22;38455;52.710;6.502;2023-07-20T12:42:47;24.80;96.30
52555;DHT22;38455;52.710;6.502;2023-07-20T12:45:14;25.40;96.10
52555;DHT22;38455;52.710;6.502;2023-07-20T12:47:40;25.60;95.30
52555;DHT22;38455;52.710;6.502;2023-07-20T12:50:06;25.90;95.00
52555;DHT22;38455;52.710;6.502;2023-07-20T12:52:36;26.20;94.90
52555;DHT22;38455;52.710;6.502;2023-07-20T12:55:07;26.40;93.90
52555;DHT22;38455;52.710;6.502;2023-07-20T12:57:37;26.10;93.70
52555;DHT22;38455;52.710;6.502;2023-07-20T13:00:04;25.90;94.40
52555;DHT22;38455;52.710;6.502;2023-07-20T13:02:31;25.60;94.40
52555;DHT22;38455;52.710;6.502;2023-07-20T13:04:58;25.20;95.60
52555;DHT22;38455;52.710;6.502;2023-07-20T13:07:37;24.70;96.50
52555;DHT22;38455;52.710;6.502;2023-07-20T13:10:04;24.60;96.30
52555;DHT22;38455;52.710;6.502;2023-07-20T13:12:31;24.20;95.00
52555;DHT22;38455;52.710;6.502;2023-07-20T13:14:58;24.10;94.20
52555;DHT22;38455;52.710;6.502;2023-07-20T13:17:28;24.30;95.60
52555;DHT22;38455;52.710;6.502;2023-07-20T13:19:55;24.80;95.70
52555;DHT22;38455;52.710;6.502;2023-07-20T13:22:21;25.00;94.70
52555;DHT22;38455;52.710;6.502;2023-07-20T13:24:47;24.90;94.30
52555;DHT22;38455;52.710;6.502;2023-07-20T13:27:19;24.70;93.20
52555;DHT22;38455;52.710;6.502;2023-07-20T13:29:45;24.60;94.00
52555;DHT22;38455;52.710;6.502;2023-07-20T13:32:15;24.80;93.60
52555;DHT22;38455;52.710;6.502;2023-07-20T13:34:41;24.70;94.30
52555;DHT22;38455;52.710;6.502;2023-07-20T13:37:08;24.50;93.60
52555;DHT22;38455;52.710;6.502;2023-07-20T13:39:34;24.50;93.90
52555;DHT22;38455;52.710;6.502;2023-07-20T13:42:00;24.30;94.40
52555;DHT22;38455;52.710;6.502;2023-07-20T13:44:29;24.40;94.30
52555;DHT22;38455;52.710;6.502;2023-07-20T13:46:55;24.70;95.00
52555;DHT22;38455;52.710;6.502;2023-07-20T13:49:20;24.80;94.20
52555;DHT22;38455;52.710;6.502;2023-07-20T13:51:46;24.80;93.70
52555;DHT22;38455;52.710;6.502;2023-07-20T13:54:12;24.70;93.90
52555;DHT22;38455;52.710;6.502;2023-07-20T13:56:38;24.50;94.10
52555;DHT22;38455;52.710;6.502;2023-07-20T13:59:03;24.30;95.20
52555;DHT22;38455;52.710;6.502;2023-07-20T14:01:29;24.30;94.90
52555;DHT22;38455;52.710;6.502;2023-07-20T14:03:56;24.10;94.80
52555;DHT22;38455;52.710;6.502;2023-07-20T14:06:22;24.20;95.70
52555;DHT22;38455;52.710;6.502;2023-07-20T14:08:48;24.40;96.50
52555;DHT22;38455;52.710;6.502;2023-07-20T14:11:15;24.70;95.30
52555;DHT22;38455;52.710;6.502;2023-07-20T14:13:41;24.80;95.10
52555;DHT22;38455;52.710;6.502;2023-07-20T14:16:07;24.80;94.40
52555;DHT22;38455;52.710;6.502;2023-07-20T14:18:33;24.60;93.70
52555;DHT22;38455;52.710;6.502;2023-07-20T14:20:59;24.50;93.30
52555;DHT22;38455;52.710;6.502;2023-07-20T14:23:25;24.30;94.70
52555;DHT22;38455;52.710;6.502;2023-07-20T14:25:51;24.20;95.20
52555;DHT22;38455;52.710;6.502;2023-07-20T14:28:16;24.20;96.40
52555;DHT22;38455;52.710;6.502;2023-07-20T14:30:42;24.10;95.40
52555;DHT22;38455;52.710;6.502;2023-07-20T14:33:08;23.90;94.70
52555;DHT22;38455;52.710;6.502;2023-07-20T14:35:34;24.10;95.40
52555;DHT22;38455;52.710;6.502;2023-07-20T14:38:00;23.90;94.80
52555;DHT22;38455;52.710;6.502;2023-07-20T14:40:26;24.00;93.90
52555;DHT22;38455;52.710;6.502;2023-07-20T14:42:52;24.00;93.90
52555;DHT22;38455;52.710;6.502;2023-07-20T14:45:18;24.10;93.50
52555;DHT22;38455;52.710;6.502;2023-07-20T14:47:44;24.10;93.80
52555;DHT22;38455;52.710;6.502;2023-07-20T14:50:11;24.10;94.10
52555;DHT22;38455;52.710;6.502;2023-07-20T14:52:37;24.10;93.60
52555;DHT22;38455;52.710;6.502;2023-07-20T14:55:03;24.10;93.50
52555;DHT22;38455;52.710;6.502;2023-07-20T14:57:29;24.10;93.90
52555;DHT22;38455;52.710;6.502;2023-07-20T14:59:54;24.20;92.90
52555;DHT22;38455;52.710;6.502;2023-07-20T15:02:20;24.20;92.70
52555;DHT22;38455;52.710;6.502;2023-07-20T15:04:50;24.20;92.70
52555;DHT22;38455;52.710;6.502;2023-07-20T15:07:20;24.20;92.50
52555;DHT22;38455;52.710;6.502;2023-07-20T15:09:47;24.10;92.90
52555;DHT22;38455;52.710;6.502;2023-07-20T15:12:13;24.10;92.50
52555;DHT22;38455;52.710;6.502;2023-07-20T15:14:40;23.80;92.10
52555;DHT22;38455;52.710;6.502;2023-07-20T15:17:07;23.60;92.30
52555;DHT22;38455;52.710;6.502;2023-07-20T15:19:33;23.50;92.40
52555;DHT22;38455;52.710;6.502;2023-07-20T15:22:00;23.40;92.80
52555;DHT22;38455;52.710;6.502;2023-07-20T15:24:25;23.50;93.70
52555;DHT22;38455;52.710;6.502;2023-07-20T15:26:51;23.30;93.90
52555;DHT22;38455;52.710;6.502;2023-07-20T15:29:17;23.30;93.10
52555;DHT22;38455;52.710;6.502;2023-07-20T15:31:42;23.30;92.70
52555;DHT22;38455;52.710;6.502;2023-07-20T15:34:08;23.20;92.80
52555;DHT22;38455;52.710;6.502;2023-07-20T15:36:38;23.10;92.70
52555;DHT22;38455;52.710;6.502;2023-07-20T15:39:04;23.10;92.70
52555;DHT22;38455;52.710;6.502;2023-07-20T15:41:31;23.20;92.70
52555;DHT22;38455;52.710;6.502;2023-07-20T15:43:56;23.20;92.40
52555;DHT22;38455;52.710;6.502;2023-07-20T15:46:44;23.10;92.20
52555;DHT22;38455;52.710;6.502;2023-07-20T15:49:10;22.90;93.10
52555;DHT22;38455;52.710;6.502;2023-07-20T15:51:36;22.90;93.00